MST,Max TemperatureF,Mean TemperatureF,Min TemperatureF,Max Dew PointF,MeanDew PointF,Min DewpointF,Max Humidity, Mean Humidity, Min Humidity, Max Sea Level PressureIn, Mean Sea Level PressureIn, Min Sea Level PressureIn, Max VisibilityMiles, Mean VisibilityMiles, Min VisibilityMiles, Max Wind SpeedMPH, Mean Wind SpeedMPH, Max Gust SpeedMPH,PrecipitationIn, CloudCover, Events, WindDirDegrees
2013-11-1,46,39,32,34,27,21,93,63,37,30.13,30.06,29.84,10,10,5,23,10,34,0.00,4,Rain,276
2013-11-2,59,44,30,28,25,23,75,50,29,30.13,29.88,29.59,10,10,10,22,9,30,0.00,0,,200
2013-11-3,51,43,35,34,29,23,87,61,33,29.83,29.66,29.55,10,10,10,15,9,21,0.00,4,,262
2013-11-4,37,32,28,27,23,19,80,69,52,30.06,29.96,29.85,10,10,2,14,5,18,0.00,4,Snow,286
2013-11-5,37,30,24,27,24,16,93,77,44,30.10,30.06,30.03,10,8,1,12,5,17,0.00,4,Snow,87
2013-11-6,42,33,24,32,27,19,100,77,57,30.30,30.14,30.04,10,10,7,17,9,24,0.00,7,Snow,239
2013-11-7,50,41,32,30,29,27,87,68,43,30.30,30.14,29.73,10,10,10,20,9,28,0.00,3,,208
2013-11-8,50,44,37,34,27,21,87,52,37,29.99,29.80,29.63,10,10,7,24,13,37,0.00,2,Rain,253
2013-11-9,42,35,28,28,26,23,81,64,46,30.25,30.17,30.00,10,10,10,13,6,18,0.00,4,,274
2013-11-10,55,42,30,32,30,27,93,61,38,30.21,30.12,30.08,10,10,4,17,11,24,0.00,2,,238
2013-11-11,28,24,21,27,22,19,100,89,80,30.55,30.43,30.21,10,7,1,13,7,22,0.00,5,Snow,2
2013-11-12,55,40,26,34,29,23,93,63,38,30.54,30.38,30.20,10,10,10,21,12,31,0.00,0,,222
2013-11-13,59,46,33,34,30,23,87,57,33,30.20,30.10,30.02,10,10,10,15,4,24,0.00,3,Rain,230
2013-11-14,46,39,32,36,29,23,100,73,40,30.09,29.93,29.72,10,10,10,14,6,18,0.00,1,Rain,220
2013-11-15,48,38,28,32,28,23,93,72,40,29.71,29.52,29.36,10,10,10,10,3,,0.00,0,,195
2013-11-16,41,32,24,30,25,21,93,77,52,29.38,29.32,29.26,10,10,10,13,4,17,0.00,2,,188
2013-11-17,37,32,26,32,24,18,100,72,45,29.97,29.73,29.38,10,8,0,16,7,24,0.00,5,Snow,253
2013-11-18,50,42,35,27,24,19,61,44,37,30.00,29.93,29.82,10,10,10,17,9,25,0.00,0,,215
2013-11-19,53,43,33,30,27,23,81,48,35,29.82,29.67,29.61,10,10,10,22,12,28,0.00,0,,203
2013-11-20,37,22,8,28,19,5,100,87,65,30.29,29.92,29.70,10,4,0,21,7,23,0.00,6,Fog-Snow,360
2013-11-21,19,12,6,7,4,1,85,71,53,30.48,30.42,30.28,10,10,4,18,6,22,0.00,4,Snow,240
2013-11-22,32,22,12,10,5,0,73,47,32,30.55,30.49,30.39,10,10,10,14,9,16,0.00,0,,225
2013-11-23,41,28,15,16,10,5,73,51,26,30.56,30.44,30.21,10,10,10,20,8,28,0.00,0,,222
2013-11-24,48,40,32,21,16,9,60,42,27,30.21,30.04,29.95,10,10,10,23,10,31,0.00,2,,251
2013-11-25,35,30,26,23,18,12,80,60,44,30.32,30.23,30.11,10,10,10,15,4,20,0.00,3,,286
2013-11-26,37,30,23,23,17,12,80,58,38,30.38,30.28,30.10,10,10,10,10,3,,0.00,2,,230
2013-11-27,51,37,23,25,22,18,93,58,28,30.18,30.06,29.99,10,10,10,15,9,22,0.00,0,,264
2013-11-28,46,34,21,27,22,16,86,70,37,30.19,30.12,30.01,10,10,10,12,3,,0.00,0,,222
2013-11-29,53,40,28,27,24,19,80,58,26,30.08,30.04,30.01,10,10,10,13,8,16,0.00,0,,228
2013-11-30,46,38,30,28,26,21,81,64,49,30.15,30.10,30.05,10,10,10,12,6,,0.00,6,,212